Terminal Aerodrome Forecast
Issued by NWS

Home | Current Version | Previous Version | Text Only | Print | Product List | Glossary On
Versions: 1 2 3 4 5 6 7 8 9 10 11 12 13 14 15 16 17 18 19 20 21 22 23 24 25 26 27 28 29 30 31 32 33 34 35
000
FTUS45 KGJT 261120
TAFRIL
TAF
KRIL 261120Z 2612/2712 VRB03KT P6SM VCSH FEW001 BKN050
      TEMPO 2615/2617 3SM -RA SCT015 OVC025
     FM261700 07006KT 5SM -RA BR BKN030 OVC050
     FM261900 28010KT P6SM VCTS SCT040CB BKN070
     FM262200 VRB10G20KT 6SM -SHRA SCT030 BKN040 OVC060
     FM270400 VRB04KT P6SM VCSH SCT030 BKN050=

USA.gov is the U.S. government's official web portal to all federal, state and local government web resources and services.